createdAt,value
2017-12-06T00:00:11.048Z,52.35
2017-12-06T00:01:11.005Z,52.55
2017-12-06T00:02:10.983Z,52.64
2017-12-06T00:03:10.958Z,52.64
2017-12-06T00:04:10.934Z,52.52
2017-12-06T00:05:10.915Z,52.64
2017-12-06T00:06:10.894Z,52.35
2017-12-06T00:07:11.517Z,52.25
2017-12-06T00:08:10.871Z,52.84
2017-12-06T00:09:10.850Z,52.64
2017-12-06T00:10:10.810Z,52.64
2017-12-06T00:11:10.813Z,52.52
2017-12-06T00:12:10.787Z,52.74
2017-12-06T00:13:10.767Z,52.62
2017-12-06T00:14:10.748Z,52.42
2017-12-06T00:15:10.730Z,52.45
2017-12-06T00:16:10.702Z,52.91
2017-12-06T00:17:10.748Z,52.62
2017-12-06T00:18:10.679Z,52.42
2017-12-06T00:19:10.666Z,52.91
2017-12-06T00:20:10.631Z,52.94
2017-12-06T00:21:10.616Z,53.00
2017-12-06T00:22:10.601Z,53.00
2017-12-06T00:23:10.570Z,52.91
2017-12-06T00:24:10.591Z,52.91
2017-12-06T00:25:10.537Z,53.10
2017-12-06T00:26:10.526Z,52.91
2017-12-06T00:27:10.491Z,53.10
2017-12-06T00:28:10.473Z,53.10
2017-12-06T00:29:10.469Z,53.00
2017-12-06T00:30:10.456Z,53.00
2017-12-06T00:31:11.348Z,53.00
2017-12-06T00:32:10.400Z,52.81
2017-12-06T00:33:10.389Z,52.91
2017-12-06T00:34:10.362Z,53.00
2017-12-06T00:35:10.366Z,53.10
2017-12-06T00:36:10.335Z,53.00
2017-12-06T00:37:10.316Z,52.91
2017-12-06T00:38:10.308Z,52.91
2017-12-06T00:39:10.283Z,52.91
2017-12-06T00:40:10.248Z,53.00
2017-12-06T00:41:10.271Z,52.81
2017-12-06T00:42:10.216Z,52.91
2017-12-06T00:43:10.206Z,52.91
2017-12-06T00:44:10.184Z,52.52
2017-12-06T00:45:10.160Z,52.81
2017-12-06T00:46:10.160Z,52.81
2017-12-06T00:47:10.109Z,52.52
2017-12-06T00:48:10.104Z,52.81
2017-12-06T00:49:10.083Z,52.91
2017-12-06T00:50:10.069Z,52.42
2017-12-06T00:51:10.096Z,52.81
2017-12-06T00:52:10.023Z,52.33
2017-12-06T00:53:10.005Z,52.33
2017-12-06T00:54:09.980Z,52.42
2017-12-06T00:55:09.959Z,52.42
2017-12-06T00:56:09.952Z,52.62
2017-12-06T00:57:10.838Z,52.81
2017-12-06T00:58:09.925Z,52.81
2017-12-06T00:59:09.898Z,52.91
2017-12-06T01:00:09.875Z,52.91
2017-12-06T01:01:09.855Z,52.52
2017-12-06T01:02:09.834Z,52.52
2017-12-06T01:03:09.821Z,52.52
2017-12-06T01:04:09.793Z,52.91
2017-12-06T01:05:09.777Z,52.91
2017-12-06T01:06:09.767Z,52.81
2017-12-06T01:07:09.746Z,52.62
2017-12-06T01:08:09.729Z,52.72
2017-12-06T01:09:09.719Z,52.52
2017-12-06T01:10:09.697Z,52.62
2017-12-06T01:11:09.661Z,52.42
2017-12-06T01:12:09.647Z,52.72
2017-12-06T01:13:09.620Z,52.62
2017-12-06T01:14:09.611Z,52.62
2017-12-06T01:15:09.592Z,52.42
2017-12-06T01:16:09.552Z,52.52
2017-12-06T01:17:09.544Z,52.52
2017-12-06T01:18:09.547Z,52.42
2017-12-06T01:19:09.503Z,52.52
2017-12-06T01:20:09.514Z,52.42
2017-12-06T01:21:09.480Z,52.52
2017-12-06T01:22:09.473Z,52.62
2017-12-06T01:23:09.445Z,52.42
2017-12-06T01:24:09.410Z,52.62
2017-12-06T01:25:09.385Z,52.72
2017-12-06T01:26:09.400Z,52.62
2017-12-06T01:27:09.361Z,52.62
2017-12-06T01:28:09.348Z,52.81
2017-12-06T01:29:09.313Z,52.62
2017-12-06T01:30:09.295Z,52.62
2017-12-06T01:31:09.294Z,52.81
2017-12-06T01:32:09.276Z,52.62
2017-12-06T01:33:09.269Z,52.62
2017-12-06T01:34:09.249Z,52.52
2017-12-06T01:35:09.225Z,52.62
2017-12-06T01:36:09.191Z,52.91
2017-12-06T01:37:09.171Z,52.62
2017-12-06T01:38:09.149Z,52.52
2017-12-06T01:39:09.128Z,52.59
2017-12-06T01:40:09.125Z,52.88
2017-12-06T01:41:09.084Z,52.59
2017-12-06T01:42:09.095Z,52.62
2017-12-06T01:43:09.061Z,52.78
2017-12-06T01:44:09.047Z,52.69
2017-12-06T01:45:09.013Z,52.59
2017-12-06T01:46:09.027Z,52.59
2017-12-06T01:47:08.978Z,52.52
2017-12-06T01:48:08.955Z,52.69
2017-12-06T01:49:08.939Z,52.69
2017-12-06T01:50:08.914Z,52.69
2017-12-06T01:51:08.905Z,52.52
2017-12-06T01:52:08.904Z,52.50
2017-12-06T01:53:08.876Z,52.69
2017-12-06T01:54:08.830Z,52.59
2017-12-06T01:55:08.830Z,52.88
2017-12-06T01:56:08.798Z,52.69
2017-12-06T01:57:08.794Z,52.59
2017-12-06T01:58:08.773Z,52.78
2017-12-06T01:59:08.751Z,52.50
2017-12-06T02:00:08.725Z,52.59
2017-12-06T02:01:08.705Z,52.69
2017-12-06T02:02:08.682Z,52.59
2017-12-06T02:03:08.664Z,52.88
2017-12-06T02:04:08.664Z,52.78
2017-12-06T02:05:08.635Z,52.98
2017-12-06T02:06:08.641Z,52.78
2017-12-06T02:07:08.616Z,52.78
2017-12-06T02:08:08.562Z,52.30
2017-12-06T02:09:08.575Z,52.69
2017-12-06T02:10:08.533Z,52.88
2017-12-06T02:11:08.528Z,52.88
2017-12-06T02:12:08.492Z,52.88
2017-12-06T02:13:08.481Z,52.98
2017-12-06T02:14:08.462Z,53.08
2017-12-06T02:15:08.446Z,52.98
2017-12-06T02:16:08.420Z,52.98
2017-12-06T02:17:08.420Z,52.98
2017-12-06T02:18:08.382Z,53.08
2017-12-06T02:19:08.363Z,53.08
2017-12-06T02:20:08.380Z,53.08
2017-12-06T02:21:08.324Z,53.08
2017-12-06T02:22:08.308Z,53.08
2017-12-06T02:23:08.297Z,53.17
2017-12-06T02:24:08.247Z,52.88
2017-12-06T02:25:08.240Z,53.08
2017-12-06T02:26:08.220Z,53.17
2017-12-06T02:27:08.201Z,53.08
2017-12-06T02:28:08.181Z,53.27
2017-12-06T02:29:08.157Z,53.17
2017-12-06T02:30:08.140Z,53.17
2017-12-06T02:31:08.128Z,52.98
2017-12-06T02:32:08.099Z,53.08
2017-12-06T02:33:08.084Z,53.17
2017-12-06T02:34:08.073Z,53.47
2017-12-06T02:35:08.069Z,53.47
2017-12-06T02:36:08.033Z,53.27
2017-12-06T02:37:08.006Z,53.47
2017-12-06T02:38:07.996Z,53.17
2017-12-06T02:39:07.955Z,53.37
2017-12-06T02:40:07.949Z,53.47
2017-12-06T02:41:07.992Z,53.17
2017-12-06T02:42:07.933Z,53.66
2017-12-06T02:43:07.909Z,53.37
2017-12-06T02:44:07.876Z,53.37
2017-12-06T02:45:07.845Z,53.37
2017-12-06T02:46:07.860Z,53.75
2017-12-06T02:47:07.812Z,53.66
2017-12-06T02:48:07.804Z,53.37
2017-12-06T02:49:07.770Z,53.17
2017-12-06T02:50:07.826Z,53.34
2017-12-06T02:51:07.743Z,53.66
2017-12-06T02:52:07.783Z,53.37
2017-12-06T02:53:07.706Z,53.37
2017-12-06T02:54:07.677Z,53.47
2017-12-06T02:55:07.649Z,53.37
2017-12-06T02:56:07.647Z,53.47
2017-12-06T02:57:07.630Z,53.44
2017-12-06T02:58:07.594Z,53.47
2017-12-06T02:59:07.574Z,53.47
2017-12-06T03:00:07.562Z,53.44
2017-12-06T03:01:07.549Z,53.47
2017-12-06T03:02:07.571Z,53.44
2017-12-06T03:03:07.513Z,53.47
2017-12-06T03:04:07.490Z,53.34
2017-12-06T03:05:07.452Z,53.53
2017-12-06T03:06:07.452Z,53.56
2017-12-06T03:07:07.432Z,53.47
2017-12-06T03:08:07.410Z,53.56
2017-12-06T03:09:07.397Z,53.56
2017-12-06T03:10:07.369Z,53.56
2017-12-06T03:11:07.350Z,53.44
2017-12-06T03:12:07.317Z,53.44
2017-12-06T03:13:07.340Z,53.63
2017-12-06T03:14:07.277Z,53.53
2017-12-06T03:15:07.256Z,53.53
2017-12-06T03:16:07.263Z,53.44
2017-12-06T03:17:07.222Z,53.73
2017-12-06T03:18:07.212Z,53.53
2017-12-06T03:19:07.219Z,53.53
2017-12-06T03:20:07.157Z,53.53
2017-12-06T03:21:07.151Z,53.56
2017-12-06T03:22:07.142Z,53.73
2017-12-06T03:23:07.124Z,53.83
2017-12-06T03:24:07.102Z,53.53
2017-12-06T03:25:07.080Z,53.66
2017-12-06T03:26:07.070Z,53.63
2017-12-06T03:27:07.025Z,53.73
2017-12-06T03:28:07.032Z,53.63
2017-12-06T03:29:06.988Z,53.73
2017-12-06T03:30:06.982Z,53.73
2017-12-06T03:31:07.046Z,53.73
2017-12-06T03:32:06.957Z,53.73
2017-12-06T03:33:06.943Z,54.21
2017-12-06T03:34:06.885Z,53.92
2017-12-06T03:35:06.919Z,54.11
2017-12-06T03:36:06.866Z,54.11
2017-12-06T03:37:06.833Z,54.21
2017-12-06T03:38:06.819Z,54.11
2017-12-06T03:39:06.810Z,54.11
2017-12-06T03:40:06.784Z,54.11
2017-12-06T03:41:06.755Z,54.21
2017-12-06T03:42:06.755Z,54.11
2017-12-06T03:43:06.719Z,54.11
2017-12-06T03:44:06.718Z,54.21
2017-12-06T03:45:06.680Z,53.92
2017-12-06T03:46:06.698Z,54.31
2017-12-06T03:47:06.642Z,54.21
2017-12-06T03:48:06.623Z,54.21
2017-12-06T03:49:06.595Z,53.92
2017-12-06T03:50:14.936Z,54.11
2017-12-06T03:51:13.704Z,54.31
2017-12-06T03:52:59.537Z,53.92
2017-12-06T03:53:59.391Z,54.21
2017-12-06T03:55:52.237Z,54.21
2017-12-06T03:56:52.214Z,54.31
2017-12-06T03:58:46.044Z,54.41
2017-12-06T03:59:45.865Z,54.31
2017-12-06T04:00:45.856Z,54.21
2017-12-06T04:01:45.837Z,54.41
2017-12-06T04:02:45.833Z,54.02
2017-12-06T04:03:45.799Z,54.50
2017-12-06T04:04:45.778Z,54.41
2017-12-06T04:05:45.773Z,54.11
2017-12-06T04:06:45.748Z,54.60
2017-12-06T04:07:45.723Z,54.21
2017-12-06T04:08:45.703Z,54.70
2017-12-06T04:09:45.732Z,54.21
2017-12-06T04:10:45.663Z,54.41
2017-12-06T04:11:45.648Z,54.41
2017-12-06T04:12:45.625Z,54.31
2017-12-06T04:13:45.601Z,54.41
2017-12-06T04:14:45.591Z,54.70
2017-12-06T04:15:45.566Z,55.08
2017-12-06T04:16:45.547Z,54.80
2017-12-06T04:17:45.511Z,54.99
2017-12-06T04:18:45.497Z,54.90
2017-12-06T04:19:45.496Z,54.80
2017-12-06T04:20:45.465Z,54.70
2017-12-06T04:21:45.452Z,54.60
2017-12-06T04:22:45.417Z,54.60
2017-12-06T04:23:45.424Z,54.50
2017-12-06T04:24:45.389Z,54.50
2017-12-06T04:25:45.352Z,54.90
2017-12-06T04:26:45.333Z,55.08
2017-12-06T04:27:45.309Z,54.90
2017-12-06T04:28:45.313Z,55.18
2017-12-06T04:29:45.276Z,54.90
2017-12-06T04:30:45.261Z,54.99
2017-12-06T04:31:45.248Z,55.08
2017-12-06T04:32:45.210Z,55.08
2017-12-06T04:33:45.221Z,55.08
2017-12-06T04:34:45.203Z,55.38
2017-12-06T04:35:45.163Z,55.57
2017-12-06T04:36:45.166Z,55.57
2017-12-06T04:37:45.124Z,55.57
2017-12-06T04:38:45.102Z,55.77
2017-12-06T04:39:45.080Z,55.87
2017-12-06T04:40:45.060Z,56.15
2017-12-06T04:41:45.069Z,56.05
2017-12-06T04:42:45.021Z,56.05
2017-12-06T04:43:45.013Z,56.15
2017-12-06T04:44:44.995Z,55.77
2017-12-06T04:45:44.958Z,55.77
2017-12-06T04:46:44.943Z,55.74
2017-12-06T04:47:44.925Z,55.67
2017-12-06T04:48:44.920Z,55.67
2017-12-06T04:49:44.891Z,55.83
2017-12-06T04:50:44.877Z,55.87
2017-12-06T04:51:44.861Z,56.05
2017-12-06T04:52:44.827Z,56.05
2017-12-06T04:53:44.820Z,56.15
2017-12-06T04:54:44.810Z,55.67
2017-12-06T04:55:44.761Z,56.05
2017-12-06T04:56:44.771Z,56.05
2017-12-06T04:57:44.731Z,55.93
2017-12-06T04:58:44.764Z,56.25
2017-12-06T04:59:44.741Z,56.32
2017-12-06T05:00:44.683Z,56.64
2017-12-06T05:01:44.663Z,56.35
2017-12-06T05:02:44.639Z,56.64
2017-12-06T05:03:44.632Z,56.45
2017-12-06T05:04:44.593Z,56.41
2017-12-06T05:05:44.614Z,56.35
2017-12-06T05:06:44.564Z,56.71
2017-12-06T05:07:44.535Z,56.83
2017-12-06T05:08:44.535Z,56.35
2017-12-06T05:09:44.505Z,56.41
2017-12-06T05:10:44.471Z,56.35
2017-12-06T05:11:44.460Z,56.74
2017-12-06T05:12:44.438Z,56.93
2017-12-06T05:13:44.428Z,56.83
2017-12-06T05:14:44.476Z,56.74
2017-12-06T05:15:44.393Z,56.64
2017-12-06T05:16:44.429Z,56.71
2017-12-06T05:17:44.363Z,56.51
2017-12-06T05:18:44.321Z,57.03
2017-12-06T05:19:44.309Z,57.12
2017-12-06T05:20:44.297Z,57.12
2017-12-06T05:21:44.255Z,57.58
2017-12-06T05:22:44.245Z,57.58
2017-12-06T05:23:44.231Z,57.48
2017-12-06T05:24:44.188Z,57.58
2017-12-06T05:25:44.191Z,57.42
2017-12-06T05:26:44.164Z,57.19
2017-12-06T05:27:44.139Z,57.39
2017-12-06T05:28:44.113Z,57.19
2017-12-06T05:29:44.119Z,57.29
2017-12-06T05:30:44.086Z,57.39
2017-12-06T05:31:44.062Z,57.39
2017-12-06T05:32:44.054Z,57.39
2017-12-06T05:33:44.031Z,57.29
2017-12-06T05:34:43.997Z,57.29
2017-12-06T05:35:43.988Z,57.29
2017-12-06T05:36:43.975Z,57.29
2017-12-06T05:37:43.954Z,57.39
2017-12-06T05:38:43.923Z,57.39
2017-12-06T05:39:43.901Z,57.19
2017-12-06T05:40:43.884Z,57.39
2017-12-06T05:41:43.869Z,57.39
2017-12-06T05:42:43.847Z,57.29
2017-12-06T05:43:43.837Z,57.39
2017-12-06T05:44:43.823Z,57.29
2017-12-06T05:45:43.784Z,57.48
2017-12-06T05:46:43.780Z,57.29
2017-12-06T05:47:43.760Z,57.29
2017-12-06T05:48:43.741Z,57.39
2017-12-06T05:49:43.710Z,57.29
2017-12-06T05:50:43.686Z,57.39
2017-12-06T05:51:43.680Z,57.19
2017-12-06T05:52:43.661Z,57.39
2017-12-06T05:53:43.631Z,57.39
2017-12-06T05:54:43.614Z,57.29
2017-12-06T05:55:43.613Z,57.29
2017-12-06T05:56:43.577Z,57.39
2017-12-06T05:57:43.561Z,57.39
2017-12-06T05:58:43.540Z,57.29
2017-12-06T05:59:43.525Z,57.39
2017-12-06T06:00:43.500Z,57.29
2017-12-06T06:01:43.494Z,57.39
2017-12-06T06:02:43.456Z,57.39
2017-12-06T06:03:43.440Z,57.39
2017-12-06T06:04:43.408Z,57.19
2017-12-06T06:05:43.402Z,57.39
2017-12-06T06:06:43.385Z,57.19
2017-12-06T06:07:43.361Z,57.39
2017-12-06T06:08:43.347Z,57.39
2017-12-06T06:09:43.327Z,57.39
2017-12-06T06:10:43.303Z,57.39
2017-12-06T06:11:43.294Z,57.39
2017-12-06T06:12:43.272Z,57.39
2017-12-06T06:13:43.235Z,57.39
2017-12-06T06:14:43.216Z,57.29
2017-12-06T06:15:43.211Z,57.39
2017-12-06T06:16:43.174Z,57.48
2017-12-06T06:17:43.170Z,57.39
2017-12-06T06:18:43.155Z,57.19
2017-12-06T06:19:43.118Z,57.48
2017-12-06T06:20:43.111Z,57.19
2017-12-06T06:21:43.087Z,57.39
2017-12-06T06:22:43.060Z,57.19
2017-12-06T06:23:43.036Z,57.39
2017-12-06T06:24:43.030Z,57.39
2017-12-06T06:25:43.003Z,57.39
2017-12-06T06:26:42.985Z,57.58
2017-12-06T06:27:42.970Z,57.48
2017-12-06T06:28:42.951Z,57.58
2017-12-06T06:29:42.917Z,57.19
2017-12-06T06:30:42.901Z,57.29
2017-12-06T06:31:42.889Z,57.39
2017-12-06T06:32:42.877Z,57.39
2017-12-06T06:33:42.866Z,57.48
2017-12-06T06:34:42.833Z,57.48
2017-12-06T06:35:42.799Z,57.39
2017-12-06T06:36:42.801Z,57.39
2017-12-06T06:37:42.778Z,57.48
2017-12-06T06:38:42.761Z,57.39
2017-12-06T06:39:42.732Z,57.39
2017-12-06T06:40:42.697Z,57.39
2017-12-06T06:41:42.692Z,57.29
2017-12-06T06:42:42.671Z,57.39
2017-12-06T06:43:42.652Z,57.19
2017-12-06T06:44:42.637Z,57.39
2017-12-06T06:45:42.614Z,57.29
2017-12-06T06:46:42.598Z,57.29
2017-12-06T06:47:42.563Z,57.29
2017-12-06T06:48:42.545Z,57.39
2017-12-06T06:49:42.549Z,57.29
2017-12-06T06:50:42.505Z,57.29
2017-12-06T06:51:42.490Z,57.19
2017-12-06T06:52:42.483Z,57.39
2017-12-06T06:53:42.465Z,57.39
2017-12-06T06:54:42.433Z,57.36
2017-12-06T06:55:42.406Z,57.36
2017-12-06T06:56:42.391Z,57.26
2017-12-06T06:57:42.407Z,57.29
2017-12-06T06:58:42.368Z,57.26
2017-12-06T06:59:42.339Z,57.39
2017-12-06T07:00:42.326Z,57.17
2017-12-06T07:01:42.303Z,57.26
2017-12-06T07:02:42.275Z,57.29
2017-12-06T07:03:42.256Z,57.26
2017-12-06T07:04:42.246Z,57.39
2017-12-06T07:05:42.220Z,57.39
2017-12-06T07:06:42.208Z,57.39
2017-12-06T07:07:42.187Z,57.39
2017-12-06T07:08:42.160Z,57.17
2017-12-06T07:09:42.149Z,57.26
2017-12-06T07:10:42.119Z,57.07
2017-12-06T07:11:42.109Z,57.17
2017-12-06T07:12:42.074Z,57.26
2017-12-06T07:13:42.052Z,57.17
2017-12-06T07:14:42.028Z,57.29
2017-12-06T07:15:42.024Z,57.26
2017-12-06T07:16:41.989Z,57.09
2017-12-06T07:17:41.990Z,57.17
2017-12-06T07:18:41.947Z,57.07
2017-12-06T07:19:41.924Z,56.77
2017-12-06T07:20:41.922Z,57.36
2017-12-06T07:21:41.910Z,56.87
2017-12-06T07:22:41.884Z,56.77
2017-12-06T07:23:41.868Z,56.87
2017-12-06T07:24:41.857Z,57.17
2017-12-06T07:25:41.828Z,57.17
2017-12-06T07:26:41.805Z,57.17
2017-12-06T07:27:41.778Z,56.97
2017-12-06T07:28:41.770Z,57.17
2017-12-06T07:29:41.733Z,56.87
2017-12-06T07:30:41.715Z,57.07
2017-12-06T07:31:41.715Z,57.36
2017-12-06T07:32:41.686Z,57.07
2017-12-06T07:33:41.675Z,57.09
2017-12-06T07:34:41.677Z,57.36
2017-12-06T07:35:41.620Z,56.87
2017-12-06T07:36:41.612Z,56.77
2017-12-06T07:37:41.595Z,57.26
2017-12-06T07:38:41.564Z,57.26
2017-12-06T07:39:41.546Z,57.07
2017-12-06T07:40:41.521Z,57.36
2017-12-06T07:41:41.503Z,57.36
2017-12-06T07:42:41.517Z,57.36
2017-12-06T07:43:41.476Z,57.36
2017-12-06T07:44:41.446Z,57.26
2017-12-06T07:45:41.415Z,57.36
2017-12-06T07:46:41.415Z,56.97
2017-12-06T07:47:41.394Z,57.17
2017-12-06T07:48:41.377Z,56.97
2017-12-06T07:49:41.357Z,57.26
2017-12-06T07:50:41.318Z,57.36
2017-12-06T07:51:41.313Z,57.36
2017-12-06T07:52:41.271Z,57.26
2017-12-06T07:53:41.262Z,57.36
2017-12-06T07:54:41.255Z,57.45
2017-12-06T07:55:41.223Z,57.26
2017-12-06T07:56:41.191Z,57.26
2017-12-06T07:57:41.199Z,57.36
2017-12-06T07:58:41.169Z,57.36
2017-12-06T07:59:41.159Z,57.26
2017-12-06T08:00:41.116Z,57.26
2017-12-06T08:01:41.109Z,56.77
2017-12-06T08:02:41.096Z,57.07
2017-12-06T08:03:41.076Z,57.07
2017-12-06T08:04:41.057Z,56.87
2017-12-06T08:05:41.027Z,57.36
2017-12-06T08:06:41.011Z,57.36
2017-12-06T08:07:40.976Z,57.17
2017-12-06T08:08:40.953Z,57.36
2017-12-06T08:09:40.958Z,56.97
2017-12-06T08:10:40.933Z,57.07
2017-12-06T08:11:40.910Z,56.97
2017-12-06T08:12:40.886Z,57.26
2017-12-06T08:13:40.882Z,57.07
2017-12-06T08:14:40.846Z,57.07
2017-12-06T08:15:40.833Z,57.26
2017-12-06T08:16:40.804Z,57.07
2017-12-06T08:17:40.798Z,57.26
2017-12-06T08:18:40.775Z,57.36
2017-12-06T08:19:40.739Z,57.36
2017-12-06T08:20:40.737Z,57.26
2017-12-06T08:21:40.723Z,57.36
2017-12-06T08:22:40.701Z,57.07
2017-12-06T08:23:40.673Z,57.36
2017-12-06T08:24:40.642Z,57.17
2017-12-06T08:25:40.626Z,57.17
2017-12-06T08:26:40.619Z,57.07
2017-12-06T08:27:40.582Z,57.07
2017-12-06T08:28:40.574Z,57.17
2017-12-06T08:29:40.534Z,57.17
2017-12-06T08:30:40.546Z,57.17
2017-12-06T08:31:40.502Z,57.17
2017-12-06T08:32:40.511Z,57.17
2017-12-06T08:33:40.483Z,57.17
2017-12-06T08:34:40.457Z,56.77
2017-12-06T08:35:40.443Z,56.97
2017-12-06T08:36:40.406Z,57.07
2017-12-06T08:37:40.400Z,57.07
2017-12-06T08:38:40.376Z,56.77
2017-12-06T08:39:40.366Z,56.68
2017-12-06T08:40:40.319Z,57.26
2017-12-06T08:41:40.295Z,57.26
2017-12-06T08:42:40.287Z,56.87
2017-12-06T08:43:40.266Z,57.36
2017-12-06T08:44:40.258Z,56.87
2017-12-06T08:45:40.228Z,57.26
2017-12-06T08:46:40.218Z,57.36
2017-12-06T08:47:40.203Z,57.07
2017-12-06T08:48:40.170Z,57.07
2017-12-06T08:49:40.157Z,57.17
2017-12-06T08:50:40.122Z,57.36
2017-12-06T08:51:40.123Z,57.26
2017-12-06T08:52:40.098Z,56.94
2017-12-06T08:53:40.071Z,57.33
2017-12-06T08:54:40.050Z,57.07
2017-12-06T08:55:40.026Z,57.36
2017-12-06T08:56:40.026Z,56.77
2017-12-06T08:57:40.001Z,57.33
2017-12-06T08:58:39.970Z,57.07
2017-12-06T08:59:39.949Z,56.97
2017-12-06T09:00:39.937Z,57.33
2017-12-06T09:01:39.926Z,57.23
2017-12-06T09:02:39.884Z,57.14
2017-12-06T09:03:39.868Z,56.97
2017-12-06T09:04:39.861Z,57.04
2017-12-06T09:05:39.850Z,56.94
2017-12-06T09:06:39.829Z,56.94
2017-12-06T09:07:39.795Z,57.26
2017-12-06T09:08:39.786Z,57.04
2017-12-06T09:09:39.751Z,57.17
2017-12-06T09:10:39.730Z,57.62
2017-12-06T09:11:39.712Z,56.94
2017-12-06T09:12:39.690Z,57.14
2017-12-06T09:13:39.670Z,57.14
2017-12-06T09:14:39.664Z,57.53
2017-12-06T09:15:39.646Z,57.62
2017-12-06T09:16:39.608Z,57.62
2017-12-06T09:17:39.593Z,57.14
2017-12-06T09:18:39.587Z,57.14
2017-12-06T09:19:39.566Z,57.43
2017-12-06T09:20:39.545Z,57.62
2017-12-06T09:21:39.520Z,57.43
2017-12-06T09:22:39.486Z,57.53
2017-12-06T09:23:39.469Z,57.43
2017-12-06T09:24:39.472Z,57.62
2017-12-06T09:25:39.443Z,57.53
2017-12-06T09:26:39.412Z,57.43
2017-12-06T09:27:39.393Z,57.53
2017-12-06T09:28:39.365Z,57.71
2017-12-06T09:29:39.368Z,57.62
2017-12-06T09:30:39.329Z,57.62
2017-12-06T09:31:39.320Z,57.53
2017-12-06T09:32:39.289Z,57.53
2017-12-06T09:33:39.272Z,57.53
2017-12-06T09:34:39.264Z,57.62
2017-12-06T09:35:39.240Z,57.53
2017-12-06T09:36:39.222Z,57.71
2017-12-06T09:37:39.198Z,57.53
2017-12-06T09:38:39.163Z,57.62
2017-12-06T09:39:39.140Z,57.71
2017-12-06T09:40:39.147Z,57.43
2017-12-06T09:41:39.119Z,57.71
2017-12-06T09:42:39.104Z,57.81
2017-12-06T09:43:39.070Z,57.53
2017-12-06T09:44:39.047Z,57.53
2017-12-06T09:45:39.031Z,57.62
2017-12-06T09:46:39.000Z,57.71
2017-12-06T09:47:39.056Z,57.71
2017-12-06T09:48:38.973Z,57.62
2017-12-06T09:49:38.966Z,57.81
2017-12-06T09:50:38.953Z,57.81
2017-12-06T09:51:38.926Z,57.81
2017-12-06T09:52:38.894Z,57.71
2017-12-06T09:53:38.871Z,57.62
2017-12-06T09:54:38.868Z,57.81
2017-12-06T09:55:38.843Z,57.91
2017-12-06T09:56:38.806Z,57.43
2017-12-06T09:57:38.800Z,57.81
2017-12-06T09:58:38.826Z,57.23
2017-12-06T09:59:38.749Z,57.91
2017-12-06T10:00:38.736Z,57.81
2017-12-06T10:01:38.726Z,57.71
2017-12-06T10:02:38.692Z,58.01
2017-12-06T10:03:38.668Z,57.81
2017-12-06T10:04:38.639Z,58.01
2017-12-06T10:05:38.636Z,57.71
2017-12-06T10:06:38.609Z,57.81
2017-12-06T10:07:38.609Z,57.81
2017-12-06T10:08:38.566Z,57.81
2017-12-06T10:09:38.558Z,58.01
2017-12-06T10:10:38.546Z,58.20
2017-12-06T10:11:38.511Z,58.20
2017-12-06T10:12:38.493Z,57.91
2017-12-06T10:13:38.475Z,58.20
2017-12-06T10:14:38.460Z,58.11
2017-12-06T10:15:38.446Z,58.01
2017-12-06T10:16:38.400Z,58.20
2017-12-06T10:17:38.397Z,58.11
2017-12-06T10:18:38.379Z,58.30
2017-12-06T10:19:38.351Z,58.11
2017-12-06T10:20:38.337Z,58.30
2017-12-06T10:21:38.306Z,58.49
2017-12-06T10:22:38.302Z,58.30
2017-12-06T10:23:38.268Z,58.30
2017-12-06T10:24:38.268Z,58.11
2017-12-06T10:25:38.238Z,58.11
2017-12-06T10:26:38.205Z,58.20
2017-12-06T10:27:38.196Z,58.30
2017-12-06T10:28:38.168Z,58.49
2017-12-06T10:29:38.150Z,58.20
2017-12-06T10:30:38.169Z,58.49
2017-12-06T10:31:38.136Z,58.30
2017-12-06T10:32:38.103Z,58.39
2017-12-06T10:33:38.083Z,58.39
2017-12-06T10:34:38.055Z,58.49
2017-12-06T10:35:38.022Z,58.69
2017-12-06T10:36:38.023Z,58.59
2017-12-06T10:37:38.008Z,58.49
2017-12-06T10:38:37.987Z,58.39
2017-12-06T10:39:37.950Z,58.11
2017-12-06T10:40:37.941Z,58.20
2017-12-06T10:41:37.919Z,58.88
2017-12-06T10:42:38.011Z,58.11
2017-12-06T10:43:37.878Z,58.49
2017-12-06T10:44:37.854Z,58.20
2017-12-06T10:45:37.875Z,58.69
2017-12-06T10:46:37.895Z,58.88
2017-12-06T10:47:37.935Z,59.07
2017-12-06T10:48:37.859Z,59.17
2017-12-06T10:49:37.756Z,59.07
2017-12-06T10:50:37.736Z,59.17
2017-12-06T10:51:37.718Z,59.17
2017-12-06T10:52:37.694Z,59.07
2017-12-06T10:53:37.674Z,58.88
2017-12-06T10:54:37.651Z,59.20
2017-12-06T10:55:37.630Z,59.07
2017-12-06T10:56:37.634Z,58.78
2017-12-06T10:57:37.589Z,59.07
2017-12-06T10:58:37.578Z,58.98
2017-12-06T10:59:37.563Z,58.88
2017-12-06T11:00:37.541Z,58.98
2017-12-06T11:01:37.506Z,58.98
2017-12-06T11:02:37.496Z,59.07
2017-12-06T11:03:37.497Z,58.88
2017-12-06T11:04:37.541Z,58.81
2017-12-06T11:05:37.439Z,58.81
2017-12-06T11:06:37.388Z,59.20
2017-12-06T11:07:37.382Z,58.81
2017-12-06T11:08:37.366Z,58.91
2017-12-06T11:09:37.362Z,59.20
2017-12-06T11:10:37.319Z,59.00
2017-12-06T11:11:37.409Z,59.00
2017-12-06T11:12:37.292Z,58.23
2017-12-06T11:13:37.279Z,58.72
2017-12-06T11:14:37.267Z,58.72
2017-12-06T11:15:37.368Z,59.10
2017-12-06T11:16:37.211Z,58.72
2017-12-06T11:17:37.192Z,58.23
2017-12-06T11:18:37.178Z,58.62
2017-12-06T11:19:37.237Z,58.42
2017-12-06T11:20:37.142Z,58.62
2017-12-06T11:21:37.114Z,58.14
2017-12-06T11:22:37.098Z,58.14
2017-12-06T11:23:37.070Z,58.74
2017-12-06T11:24:37.159Z,58.91
2017-12-06T11:25:37.042Z,58.91
2017-12-06T11:26:37.084Z,59.10
2017-12-06T11:27:37.066Z,58.72
2017-12-06T11:28:37.009Z,58.91
2017-12-06T11:29:37.062Z,59.13
2017-12-06T11:30:37.054Z,58.81
2017-12-06T11:31:36.965Z,59.10
2017-12-06T11:32:36.994Z,58.91
2017-12-06T11:33:36.967Z,58.84
2017-12-06T11:34:36.872Z,58.94
2017-12-06T11:35:36.855Z,59.20
2017-12-06T11:36:36.835Z,58.81
2017-12-06T11:37:36.839Z,58.91
2017-12-06T11:38:36.949Z,58.74
2017-12-06T11:39:36.763Z,58.94
2017-12-06T11:40:36.736Z,58.94
2017-12-06T11:41:36.713Z,59.13
2017-12-06T11:42:36.696Z,59.42
2017-12-06T11:43:36.695Z,59.91
2017-12-06T11:44:36.662Z,59.91
2017-12-06T11:45:36.624Z,59.91
2017-12-06T11:46:36.630Z,59.42
2017-12-06T11:47:36.588Z,59.52
2017-12-06T11:48:36.607Z,59.71
2017-12-06T11:49:36.564Z,59.71
2017-12-06T11:50:36.541Z,60.10
2017-12-06T11:51:36.546Z,60.88
2017-12-06T11:52:36.523Z,60.58
2017-12-06T11:53:36.477Z,60.30
2017-12-06T11:54:36.450Z,60.68
2017-12-06T11:55:36.501Z,61.46
2017-12-06T11:56:36.417Z,61.46
2017-12-06T11:57:36.388Z,61.36
2017-12-06T11:58:36.383Z,61.55
2017-12-06T11:59:36.487Z,61.55
2017-12-06T12:00:36.343Z,61.46
2017-12-06T12:01:36.350Z,61.46
2017-12-06T12:02:37.559Z,61.46
2017-12-06T12:03:37.477Z,61.17
2017-12-06T12:04:38.108Z,60.88
2017-12-06T12:05:36.340Z,60.81
2017-12-06T12:06:37.166Z,60.78
2017-12-06T12:07:36.269Z,60.52
2017-12-06T12:08:36.308Z,60.13
2017-12-06T12:09:36.454Z,60.23
2017-12-06T12:10:37.118Z,60.23
2017-12-06T12:11:37.103Z,60.71
2017-12-06T12:12:37.102Z,60.42
2017-12-06T12:13:37.586Z,60.52
2017-12-06T12:14:36.112Z,60.13
2017-12-06T12:15:36.052Z,60.23
2017-12-06T12:16:36.020Z,60.23
2017-12-06T12:17:36.001Z,60.42
2017-12-06T12:18:35.984Z,60.13
2017-12-06T12:19:36.021Z,60.42
2017-12-06T12:20:36.003Z,60.61
2017-12-06T12:21:35.911Z,60.84
2017-12-06T12:22:37.888Z,60.42
2017-12-06T12:23:36.894Z,60.42
2017-12-06T12:24:35.892Z,60.55
2017-12-06T12:25:35.948Z,59.97
2017-12-06T12:26:35.847Z,59.77
2017-12-06T12:27:35.807Z,59.58
2017-12-06T12:28:35.818Z,58.31
2017-12-06T12:29:35.985Z,57.73
2017-12-06T12:30:35.761Z,56.76
2017-12-06T12:31:35.769Z,55.79
2017-12-06T12:32:35.718Z,55.11
2017-12-06T12:33:35.726Z,54.63
2017-12-06T12:34:35.692Z,54.21
2017-12-06T12:35:35.739Z,53.47
2017-12-06T12:36:35.648Z,52.86
2017-12-06T12:37:35.616Z,52.88
2017-12-06T12:38:35.600Z,52.08
2017-12-06T12:39:35.997Z,51.01
2017-12-06T12:40:36.357Z,51.21
2017-12-06T12:41:35.752Z,50.62
2017-12-06T12:42:36.067Z,50.43
2017-12-06T12:43:35.496Z,50.14
2017-12-06T12:44:35.523Z,49.56
2017-12-06T12:45:35.482Z,49.27
2017-12-06T12:46:35.428Z,49.17
2017-12-06T12:47:35.413Z,48.97
2017-12-06T12:48:35.394Z,48.59
2017-12-06T12:49:35.477Z,48.00
2017-12-06T12:50:35.340Z,47.62
2017-12-06T12:51:35.334Z,47.33
2017-12-06T12:52:35.852Z,46.84
2017-12-06T12:53:35.291Z,47.03
2017-12-06T12:56:07.072Z,46.36